sensor_id;sensor_type;location;lat;lon;timestamp;pressure;altitude;pressure_sealevel;temperature;humidity
10852;BME280;5479;52.046;6.314;2023-04-30T00:01:09;102273.75;;;7.96;100.00
10852;BME280;5479;52.046;6.314;2023-04-30T00:03:37;102278.16;;;7.95;100.00
10852;BME280;5479;52.046;6.314;2023-04-30T00:06:05;102273.81;;;7.93;100.00
10852;BME280;5479;52.046;6.314;2023-04-30T00:08:32;102278.41;;;7.86;100.00
10852;BME280;5479;52.046;6.314;2023-04-30T00:11:00;102284.69;;;7.80;100.00
10852;BME280;5479;52.046;6.314;2023-04-30T00:13:30;102283.09;;;7.73;100.00
10852;BME280;5479;52.046;6.314;2023-04-30T00:15:58;102278.06;;;7.64;100.00
10852;BME280;5479;52.046;6.314;2023-04-30T00:18:25;102281.66;;;7.60;100.00
10852;BME280;5479;52.046;6.314;2023-04-30T00:20:53;102288.00;;;7.52;100.00
10852;BME280;5479;52.046;6.314;2023-04-30T00:23:21;102279.25;;;7.50;100.00
10852;BME280;5479;52.046;6.314;2023-04-30T00:25:49;102286.41;;;7.45;100.00
10852;BME280;5479;52.046;6.314;2023-04-30T00:28:17;102283.91;;;7.39;100.00
10852;BME280;5479;52.046;6.314;2023-04-30T00:30:46;102285.09;;;7.25;100.00
10852;BME280;5479;52.046;6.314;2023-04-30T00:33:14;102294.16;;;7.12;100.00
10852;BME280;5479;52.046;6.314;2023-04-30T00:35:42;102290.88;;;7.01;100.00
10852;BME280;5479;52.046;6.314;2023-04-30T00:38:10;102292.84;;;6.92;100.00
10852;BME280;5479;52.046;6.314;2023-04-30T00:40:39;102293.78;;;6.89;100.00
10852;BME280;5479;52.046;6.314;2023-04-30T00:43:07;102296.59;;;6.80;100.00
10852;BME280;5479;52.046;6.314;2023-04-30T00:45:35;102306.44;;;6.71;100.00
10852;BME280;5479;52.046;6.314;2023-04-30T00:48:04;102303.97;;;6.63;100.00
10852;BME280;5479;52.046;6.314;2023-04-30T00:50:35;102301.41;;;6.58;100.00
10852;BME280;5479;52.046;6.314;2023-04-30T00:53:03;102302.31;;;6.56;100.00
10852;BME280;5479;52.046;6.314;2023-04-30T00:55:31;102295.28;;;6.58;100.00
10852;BME280;5479;52.046;6.314;2023-04-30T00:57:59;102287.47;;;6.53;100.00
10852;BME280;5479;52.046;6.314;2023-04-30T01:00:27;102293.66;;;6.51;100.00
10852;BME280;5479;52.046;6.314;2023-04-30T01:02:56;102286.44;;;6.62;100.00
10852;BME280;5479;52.046;6.314;2023-04-30T01:05:26;102293.50;;;6.60;100.00
10852;BME280;5479;52.046;6.314;2023-04-30T01:07:55;102293.50;;;6.60;100.00
10852;BME280;5479;52.046;6.314;2023-04-30T01:10:29;102291.84;;;6.53;100.00
10852;BME280;5479;52.046;6.314;2023-04-30T01:13:03;102292.00;;;6.47;100.00
10852;BME280;5479;52.046;6.314;2023-04-30T01:15:37;102289.50;;;6.39;100.00
10852;BME280;5479;52.046;6.314;2023-04-30T01:18:11;102301.06;;;6.31;100.00
10852;BME280;5479;52.046;6.314;2023-04-30T01:20:45;102302.97;;;6.23;100.00
10852;BME280;5479;52.046;6.314;2023-04-30T01:23:21;102296.97;;;6.15;100.00
10852;BME280;5479;52.046;6.314;2023-04-30T01:26:09;102305.00;;;6.05;100.00
10852;BME280;5479;52.046;6.314;2023-04-30T01:28:41;102293.72;;;5.99;100.00
10852;BME280;5479;52.046;6.314;2023-04-30T01:31:17;102293.78;;;5.94;100.00
10852;BME280;5479;52.046;6.314;2023-04-30T01:33:45;102297.31;;;5.92;100.00
10852;BME280;5479;52.046;6.314;2023-04-30T01:36:23;102293.00;;;5.89;100.00
10852;BME280;5479;52.046;6.314;2023-04-30T01:39:03;102293.03;;;5.86;100.00
10852;BME280;5479;52.046;6.314;2023-04-30T01:41:41;102294.56;;;5.99;100.00
10852;BME280;5479;52.046;6.314;2023-04-30T01:44:25;102297.00;;;6.12;100.00
10852;BME280;5479;52.046;6.314;2023-04-30T01:47:01;102291.69;;;6.15;100.00
10852;BME280;5479;52.046;6.314;2023-04-30T01:49:38;102292.63;;;6.11;100.00
10852;BME280;5479;52.046;6.314;2023-04-30T01:52:17;102301.09;;;6.28;100.00
10852;BME280;5479;52.046;6.314;2023-04-30T01:54:51;102301.06;;;6.31;100.00
10852;BME280;5479;52.046;6.314;2023-04-30T01:57:22;102305.53;;;6.24;100.00
10852;BME280;5479;52.046;6.314;2023-04-30T01:59:53;102313.34;;;6.30;100.00
10852;BME280;5479;52.046;6.314;2023-04-30T02:02:22;102308.91;;;6.32;100.00
10852;BME280;5479;52.046;6.314;2023-04-30T02:04:50;102304.47;;;6.36;100.00
10852;BME280;5479;52.046;6.314;2023-04-30T02:07:27;102312.44;;;6.31;100.00
10852;BME280;5479;52.046;6.314;2023-04-30T02:10:04;102313.53;;;6.20;100.00
10852;BME280;5479;52.046;6.314;2023-04-30T02:12:32;102314.59;;;6.10;100.00
10852;BME280;5479;52.046;6.314;2023-04-30T02:15:01;102326.13;;;5.99;100.00
10852;BME280;5479;52.046;6.314;2023-04-30T02:17:30;102321.00;;;5.93;100.00
10852;BME280;5479;52.046;6.314;2023-04-30T02:19:58;102322.00;;;5.85;100.00
10852;BME280;5479;52.046;6.314;2023-04-30T02:22:26;102335.19;;;5.80;100.00
10852;BME280;5479;52.046;6.314;2023-04-30T02:24:54;102330.09;;;5.68;100.00
10852;BME280;5479;52.046;6.314;2023-04-30T02:27:24;102333.69;;;5.64;100.00
10852;BME280;5479;52.046;6.314;2023-04-30T02:29:52;102331.94;;;5.63;100.00
10852;BME280;5479;52.046;6.314;2023-04-30T02:32:22;102331.97;;;5.60;100.00
10852;BME280;5479;52.046;6.314;2023-04-30T02:34:49;102326.78;;;5.54;100.00
10852;BME280;5479;52.046;6.314;2023-04-30T02:37:17;102321.53;;;5.54;100.00
10852;BME280;5479;52.046;6.314;2023-04-30T02:39:45;102330.38;;;5.50;100.00
10852;BME280;5479;52.046;6.314;2023-04-30T02:42:13;102324.00;;;5.65;100.00
10852;BME280;5479;52.046;6.314;2023-04-30T02:44:41;102319.66;;;5.64;100.00
10852;BME280;5479;52.046;6.314;2023-04-30T02:47:09;102316.13;;;5.66;100.00
10852;BME280;5479;52.046;6.314;2023-04-30T02:49:39;102320.28;;;5.79;100.00
10852;BME280;5479;52.046;6.314;2023-04-30T02:52:07;102316.00;;;5.74;100.00
10852;BME280;5479;52.046;6.314;2023-04-30T02:54:35;102318.69;;;5.69;100.00
10852;BME280;5479;52.046;6.314;2023-04-30T02:57:03;102315.94;;;5.77;100.00
10852;BME280;5479;52.046;6.314;2023-04-30T02:59:31;102322.09;;;5.77;100.00
10852;BME280;5479;52.046;6.314;2023-04-30T03:01:59;102316.03;;;5.72;100.00
10852;BME280;5479;52.046;6.314;2023-04-30T03:04:26;102309.13;;;5.65;100.00
10852;BME280;5479;52.046;6.314;2023-04-30T03:06:56;102305.44;;;5.75;100.00
10852;BME280;5479;52.046;6.314;2023-04-30T03:09:31;102296.63;;;5.79;100.00
10852;BME280;5479;52.046;6.314;2023-04-30T03:11:59;102301.78;;;5.88;100.00
10852;BME280;5479;52.046;6.314;2023-04-30T03:14:28;102304.34;;;5.93;100.00
10852;BME280;5479;52.046;6.314;2023-04-30T03:16:56;102303.47;;;5.92;100.00
10852;BME280;5479;52.046;6.314;2023-04-30T03:19:24;102292.84;;;5.98;100.00
10852;BME280;5479;52.046;6.314;2023-04-30T03:21:51;102302.66;;;5.87;100.00
10852;BME280;5479;52.046;6.314;2023-04-30T03:24:21;102295.63;;;5.89;100.00
10852;BME280;5479;52.046;6.314;2023-04-30T03:26:49;102300.06;;;5.84;100.00
10852;BME280;5479;52.046;6.314;2023-04-30T03:29:17;102299.44;;;5.69;100.00
10852;BME280;5479;52.046;6.314;2023-04-30T03:31:45;102305.56;;;5.69;100.00
10852;BME280;5479;52.046;6.314;2023-04-30T03:34:13;102305.56;;;5.69;100.00
10852;BME280;5479;52.046;6.314;2023-04-30T03:36:41;102309.13;;;5.65;100.00
10852;BME280;5479;52.046;6.314;2023-04-30T03:39:08;102306.56;;;5.61;100.00
10852;BME280;5479;52.046;6.314;2023-04-30T03:41:38;102304.94;;;5.54;100.00
10852;BME280;5479;52.046;6.314;2023-04-30T03:44:06;102308.50;;;5.48;100.00
10852;BME280;5479;52.046;6.314;2023-04-30T03:46:40;102307.78;;;5.37;100.00
10852;BME280;5479;52.046;6.314;2023-04-30T03:49:09;102314.03;;;5.28;100.00
10852;BME280;5479;52.046;6.314;2023-04-30T03:51:37;102307.16;;;5.18;100.00
10852;BME280;5479;52.046;6.314;2023-04-30T03:54:07;102307.28;;;5.09;100.00
10852;BME280;5479;52.046;6.314;2023-04-30T03:56:37;102306.44;;;5.06;100.00
10852;BME280;5479;52.046;6.314;2023-04-30T03:59:06;102305.59;;;5.04;100.00
10852;BME280;5479;52.046;6.314;2023-04-30T04:01:35;102305.66;;;4.99;100.00
10852;BME280;5479;52.046;6.314;2023-04-30T04:04:03;102304.78;;;4.99;100.00
10852;BME280;5479;52.046;6.314;2023-04-30T04:06:31;102303.94;;;4.95;100.00
10852;BME280;5479;52.046;6.314;2023-04-30T04:08:59;102303.13;;;4.92;100.00
10852;BME280;5479;52.046;6.314;2023-04-30T04:11:27;102305.75;;;4.90;100.00
10852;BME280;5479;52.046;6.314;2023-04-30T04:13:56;102304.88;;;4.89;100.00
10852;BME280;5479;52.046;6.314;2023-04-30T04:16:25;102302.28;;;4.88;100.00
10852;BME280;5479;52.046;6.314;2023-04-30T04:18:53;102307.53;;;4.88;100.00
10852;BME280;5479;52.046;6.314;2023-04-30T04:21:20;102302.31;;;4.86;100.00
10852;BME280;5479;52.046;6.314;2023-04-30T04:23:48;102308.41;;;4.88;100.00
10852;BME280;5479;52.046;6.314;2023-04-30T04:26:16;102299.56;;;4.96;100.00
10852;BME280;5479;52.046;6.314;2023-04-30T04:28:45;102295.16;;;4.99;100.00
10852;BME280;5479;52.046;6.314;2023-04-30T04:31:14;102297.56;;;5.16;100.00
10852;BME280;5479;52.046;6.314;2023-04-30T04:33:43;102299.94;;;5.32;100.00
10852;BME280;5479;52.046;6.314;2023-04-30T04:36:10;102299.84;;;5.41;100.00
10852;BME280;5479;52.046;6.314;2023-04-30T04:38:38;102303.25;;;5.46;100.00
10852;BME280;5479;52.046;6.314;2023-04-30T04:41:06;102300.63;;;5.48;100.00
10852;BME280;5479;52.046;6.314;2023-04-30T04:43:34;102303.19;;;5.51;100.00
10852;BME280;5479;52.046;6.314;2023-04-30T04:46:02;102303.84;;;5.65;100.00
10852;BME280;5479;52.046;6.314;2023-04-30T04:48:32;102302.84;;;5.74;100.00
10852;BME280;5479;52.046;6.314;2023-04-30T04:51:02;102303.50;;;5.89;100.00
10852;BME280;5479;52.046;6.314;2023-04-30T04:53:30;102309.63;;;5.90;100.00
10852;BME280;5479;52.046;6.314;2023-04-30T04:55:58;102306.94;;;5.94;100.00
10852;BME280;5479;52.046;6.314;2023-04-30T04:58:26;102305.88;;;6.06;100.00
10852;BME280;5479;52.046;6.314;2023-04-30T05:00:54;102312.88;;;6.07;100.00
10852;BME280;5479;52.046;6.314;2023-04-30T05:03:23;102313.63;;;6.14;100.00
10852;BME280;5479;52.046;6.314;2023-04-30T05:05:52;102312.03;;;6.03;100.00
10852;BME280;5479;52.046;6.314;2023-04-30T05:08:20;102314.69;;;6.02;100.00
10852;BME280;5479;52.046;6.314;2023-04-30T05:10:48;102310.25;;;6.05;100.00
10852;BME280;5479;52.046;6.314;2023-04-30T05:13:16;102313.84;;;6.00;100.00
10852;BME280;5479;52.046;6.314;2023-04-30T05:15:46;102318.22;;;6.01;100.00
10852;BME280;5479;52.046;6.314;2023-04-30T05:18:14;102323.31;;;6.10;100.00
10852;BME280;5479;52.046;6.314;2023-04-30T05:20:41;102323.22;;;6.16;100.00
10852;BME280;5479;52.046;6.314;2023-04-30T05:23:11;102326.63;;;6.21;100.00
10852;BME280;5479;52.046;6.314;2023-04-30T05:25:39;102323.09;;;6.24;100.00
10852;BME280;5479;52.046;6.314;2023-04-30T05:28:06;102321.19;;;6.32;100.00
10852;BME280;5479;52.046;6.314;2023-04-30T05:30:34;102327.47;;;6.25;100.00
10852;BME280;5479;52.046;6.314;2023-04-30T05:33:03;102323.94;;;6.26;100.00
10852;BME280;5479;52.046;6.314;2023-04-30T05:35:30;102326.50;;;6.30;100.00
10852;BME280;5479;52.046;6.314;2023-04-30T05:38:01;102317.72;;;6.30;100.00
10852;BME280;5479;52.046;6.314;2023-04-30T05:40:31;102321.19;;;6.33;100.00
10852;BME280;5479;52.046;6.314;2023-04-30T05:42:59;102319.19;;;6.46;100.00
10852;BME280;5479;52.046;6.314;2023-04-30T05:45:27;102332.91;;;6.63;100.00
10852;BME280;5479;52.046;6.314;2023-04-30T05:47:55;102326.56;;;6.73;100.00
10852;BME280;5479;52.046;6.314;2023-04-30T05:50:23;102324.56;;;6.87;100.00
10852;BME280;5479;52.046;6.314;2023-04-30T05:52:51;102326.91;;;6.99;100.00
10852;BME280;5479;52.046;6.314;2023-04-30T05:55:19;102339.00;;;7.09;100.00
10852;BME280;5479;52.046;6.314;2023-04-30T05:57:48;102335.22;;;7.22;100.00
10852;BME280;5479;52.046;6.314;2023-04-30T06:00:16;102331.56;;;7.28;100.00
10852;BME280;5479;52.046;6.314;2023-04-30T06:02:44;102331.31;;;7.40;100.00
10852;BME280;5479;52.046;6.314;2023-04-30T06:05:12;102341.41;;;7.60;100.00
10852;BME280;5479;52.046;6.314;2023-04-30T06:07:40;102334.03;;;7.75;100.00
10852;BME280;5479;52.046;6.314;2023-04-30T06:10:08;102338.31;;;7.81;100.00
10852;BME280;5479;52.046;6.314;2023-04-30T06:12:38;102337.38;;;7.82;100.00
10852;BME280;5479;52.046;6.314;2023-04-30T06:15:08;102336.34;;;7.89;100.00
10852;BME280;5479;52.046;6.314;2023-04-30T06:17:36;102333.41;;;8.01;100.00
10852;BME280;5479;52.046;6.314;2023-04-30T06:20:05;102336.53;;;8.17;100.00
10852;BME280;5479;52.046;6.314;2023-04-30T06:22:34;102335.59;;;8.19;100.00
10852;BME280;5479;52.046;6.314;2023-04-30T06:25:01;102328.41;;;8.24;100.00
10852;BME280;5479;52.046;6.314;2023-04-30T06:27:30;102339.59;;;8.35;100.00
10852;BME280;5479;52.046;6.314;2023-04-30T06:29:58;102346.00;;;8.61;100.00
10852;BME280;5479;52.046;6.314;2023-04-30T06:32:27;102336.69;;;8.78;100.00
10852;BME280;5479;52.046;6.314;2023-04-30T06:34:56;102337.31;;;8.88;100.00
10852;BME280;5479;52.046;6.314;2023-04-30T06:37:24;102340.19;;;9.11;100.00
10852;BME280;5479;52.046;6.314;2023-04-30T06:39:52;102331.22;;;9.44;100.00
10852;BME280;5479;52.046;6.314;2023-04-30T06:42:20;102338.47;;;9.95;100.00
10852;BME280;5479;52.046;6.314;2023-04-30T06:44:47;102337.75;;;11.61;100.00
10852;BME280;5479;52.046;6.314;2023-04-30T06:47:15;102338.53;;;12.90;100.00
10852;BME280;5479;52.046;6.314;2023-04-30T06:49:47;102327.63;;;14.77;100.00
10852;BME280;5479;52.046;6.314;2023-04-30T06:52:14;102322.91;;;16.24;90.12
10852;BME280;5479;52.046;6.314;2023-04-30T06:54:42;102322.78;;;16.11;86.63
10852;BME280;5479;52.046;6.314;2023-04-30T06:57:10;102313.06;;;16.84;81.64
10852;BME280;5479;52.046;6.314;2023-04-30T06:59:38;102315.66;;;17.28;74.87
10852;BME280;5479;52.046;6.314;2023-04-30T07:02:06;102316.53;;;17.83;70.17
10852;BME280;5479;52.046;6.314;2023-04-30T07:04:34;102328.50;;;16.65;70.42
10852;BME280;5479;52.046;6.314;2023-04-30T07:07:03;102326.34;;;16.85;71.10
10852;BME280;5479;52.046;6.314;2023-04-30T07:09:37;102318.72;;;17.22;69.93
10852;BME280;5479;52.046;6.314;2023-04-30T07:12:06;102327.50;;;17.52;68.85
10852;BME280;5479;52.046;6.314;2023-04-30T07:14:34;102316.53;;;17.83;65.13
10852;BME280;5479;52.046;6.314;2023-04-30T07:17:02;102328.94;;;17.84;65.38
10852;BME280;5479;52.046;6.314;2023-04-30T07:19:30;102331.03;;;17.24;66.49
10852;BME280;5479;52.046;6.314;2023-04-30T07:21:58;102325.59;;;17.54;66.68
10852;BME280;5479;52.046;6.314;2023-04-30T07:24:27;102325.00;;;18.17;61.99
10852;BME280;5479;52.046;6.314;2023-04-30T07:26:56;102325.97;;;18.16;63.78
10852;BME280;5479;52.046;6.314;2023-04-30T07:29:28;102325.63;;;18.07;60.83
10852;BME280;5479;52.046;6.314;2023-04-30T07:31:56;102320.31;;;17.93;61.14
10852;BME280;5479;52.046;6.314;2023-04-30T07:34:24;102321.16;;;18.21;60.14
10852;BME280;5479;52.046;6.314;2023-04-30T07:36:53;102319.91;;;17.73;61.93
10852;BME280;5479;52.046;6.314;2023-04-30T07:39:21;102322.13;;;17.38;63.69
10852;BME280;5479;52.046;6.314;2023-04-30T07:41:50;102328.44;;;16.37;68.81
10852;BME280;5479;52.046;6.314;2023-04-30T07:44:18;102329.09;;;16.56;68.50
10852;BME280;5479;52.046;6.314;2023-04-30T07:46:47;102320.69;;;16.76;67.66
10852;BME280;5479;52.046;6.314;2023-04-30T07:49:15;102321.19;;;17.53;63.50
10852;BME280;5479;52.046;6.314;2023-04-30T07:51:44;102324.94;;;17.22;62.69
10852;BME280;5479;52.046;6.314;2023-04-30T07:54:12;102330.63;;;16.60;66.44
10852;BME280;5479;52.046;6.314;2023-04-30T07:56:40;102324.41;;;16.59;69.02
10852;BME280;5479;52.046;6.314;2023-04-30T07:59:10;102335.84;;;15.70;77.29
10852;BME280;5479;52.046;6.314;2023-04-30T08:01:38;102335.03;;;16.45;75.48
10852;BME280;5479;52.046;6.314;2023-04-30T08:04:06;102332.59;;;17.83;65.30
10852;BME280;5479;52.046;6.314;2023-04-30T08:06:35;102331.31;;;17.62;64.46
10852;BME280;5479;52.046;6.314;2023-04-30T08:09:02;102332.25;;;17.61;63.51
10852;BME280;5479;52.046;6.314;2023-04-30T08:11:31;102339.34;;;17.34;63.76
10852;BME280;5479;52.046;6.314;2023-04-30T08:13:59;102340.41;;;17.60;66.10
10852;BME280;5479;52.046;6.314;2023-04-30T08:16:28;102335.31;;;18.23;60.47
10852;BME280;5479;52.046;6.314;2023-04-30T08:18:56;102337.44;;;18.18;60.97
10852;BME280;5479;52.046;6.314;2023-04-30T08:21:24;102329.19;;;18.60;56.40
10852;BME280;5479;52.046;6.314;2023-04-30T08:23:53;102334.19;;;18.00;58.80
10852;BME280;5479;52.046;6.314;2023-04-30T08:26:23;102340.66;;;18.10;57.64
10852;BME280;5479;52.046;6.314;2023-04-30T08:28:51;102328.94;;;18.11;57.97
10852;BME280;5479;52.046;6.314;2023-04-30T08:31:19;102329.88;;;17.97;58.89
10852;BME280;5479;52.046;6.314;2023-04-30T08:33:48;102334.56;;;17.53;59.45
10852;BME280;5479;52.046;6.314;2023-04-30T08:36:16;102333.09;;;17.76;59.22
10852;BME280;5479;52.046;6.314;2023-04-30T08:38:45;102335.13;;;18.38;59.37
10852;BME280;5479;52.046;6.314;2023-04-30T08:41:13;102336.31;;;18.61;55.82
10852;BME280;5479;52.046;6.314;2023-04-30T08:43:42;102336.00;;;18.39;55.81
10852;BME280;5479;52.046;6.314;2023-04-30T08:46:11;102334.50;;;18.99;52.78
10852;BME280;5479;52.046;6.314;2023-04-30T08:48:40;102341.25;;;18.92;50.74
10852;BME280;5479;52.046;6.314;2023-04-30T08:51:09;102336.41;;;18.97;51.05
10852;BME280;5479;52.046;6.314;2023-04-30T08:53:38;102337.81;;;18.90;51.00
10852;BME280;5479;52.046;6.314;2023-04-30T08:56:08;102342.31;;;18.77;51.14
10852;BME280;5479;52.046;6.314;2023-04-30T08:58:36;102339.31;;;19.19;50.19
10852;BME280;5479;52.046;6.314;2023-04-30T09:01:06;102341.91;;;18.04;52.05
10852;BME280;5479;52.046;6.314;2023-04-30T09:03:35;102336.34;;;18.07;51.92
10852;BME280;5479;52.046;6.314;2023-04-30T09:06:03;102327.00;;;18.40;51.50
10852;BME280;5479;52.046;6.314;2023-04-30T09:08:43;102325.28;;;18.39;51.91
10852;BME280;5479;52.046;6.314;2023-04-30T09:11:22;102333.97;;;17.48;52.38
10852;BME280;5479;52.046;6.314;2023-04-30T09:13:51;102328.63;;;17.62;51.71
10852;BME280;5479;52.046;6.314;2023-04-30T09:16:20;102325.03;;;17.07;54.11
10852;BME280;5479;52.046;6.314;2023-04-30T09:18:48;102329.59;;;17.61;53.81
10852;BME280;5479;52.046;6.314;2023-04-30T09:21:16;102320.84;;;18.90;51.18
10852;BME280;5479;52.046;6.314;2023-04-30T09:23:59;102319.56;;;19.20;49.40
10852;BME280;5479;52.046;6.314;2023-04-30T09:26:30;102320.31;;;18.97;49.40
10852;BME280;5479;52.046;6.314;2023-04-30T09:28:59;102322.44;;;18.28;51.73
10852;BME280;5479;52.046;6.314;2023-04-30T09:31:34;102319.22;;;18.62;51.72
10852;BME280;5479;52.046;6.314;2023-04-30T09:34:02;102311.34;;;19.35;51.46
10852;BME280;5479;52.046;6.314;2023-04-30T09:36:31;102307.72;;;18.47;53.05
10852;BME280;5479;52.046;6.314;2023-04-30T09:39:06;102319.78;;;18.80;49.33
10852;BME280;5479;52.046;6.314;2023-04-30T09:41:37;102318.47;;;18.73;51.15
10852;BME280;5479;52.046;6.314;2023-04-30T09:44:25;102314.19;;;18.83;49.99
10852;BME280;5479;52.046;6.314;2023-04-30T09:46:54;102316.44;;;18.51;50.34
10852;BME280;5479;52.046;6.314;2023-04-30T09:49:23;102314.31;;;18.29;52.97
10852;BME280;5479;52.046;6.314;2023-04-30T09:51:55;102313.19;;;19.47;48.61
10852;BME280;5479;52.046;6.314;2023-04-30T09:54:27;102313.09;;;19.10;49.86
10852;BME280;5479;52.046;6.314;2023-04-30T09:56:57;102305.25;;;19.20;49.07
10852;BME280;5479;52.046;6.314;2023-04-30T09:59:28;102299.66;;;19.72;49.22
10852;BME280;5479;52.046;6.314;2023-04-30T10:01:58;102293.25;;;19.62;49.47
10852;BME280;5479;52.046;6.314;2023-04-30T10:04:29;102296.44;;;19.67;48.98
10852;BME280;5479;52.046;6.314;2023-04-30T10:07:00;102287.56;;;19.90;49.39
10852;BME280;5479;52.046;6.314;2023-04-30T10:09:36;102290.25;;;20.01;48.96
10852;BME280;5479;52.046;6.314;2023-04-30T10:12:07;102288.25;;;19.32;50.07
10852;BME280;5479;52.046;6.314;2023-04-30T10:14:44;102276.81;;;20.60;46.32
10852;BME280;5479;52.046;6.314;2023-04-30T10:17:15;102280.03;;;20.30;48.12
10852;BME280;5479;52.046;6.314;2023-04-30T10:19:47;102270.31;;;20.51;47.52
10852;BME280;5479;52.046;6.314;2023-04-30T10:22:18;102274.22;;;20.23;47.81
10852;BME280;5479;52.046;6.314;2023-04-30T10:24:48;102268.03;;;19.75;49.88
10852;BME280;5479;52.046;6.314;2023-04-30T10:27:17;102268.31;;;20.07;48.84
10852;BME280;5479;52.046;6.314;2023-04-30T10:29:46;102273.63;;;19.96;49.91
10852;BME280;5479;52.046;6.314;2023-04-30T10:32:15;102271.09;;;19.58;51.11
10852;BME280;5479;52.046;6.314;2023-04-30T10:34:51;102271.16;;;20.63;47.71
10852;BME280;5479;52.046;6.314;2023-04-30T10:37:26;102257.91;;;21.59;45.71
10852;BME280;5479;52.046;6.314;2023-04-30T10:39:59;102254.50;;;20.46;48.47
10852;BME280;5479;52.046;6.314;2023-04-30T10:42:33;102257.59;;;20.18;46.80
10852;BME280;5479;52.046;6.314;2023-04-30T10:45:02;102255.28;;;21.04;45.39
10852;BME280;5479;52.046;6.314;2023-04-30T10:47:30;102252.06;;;21.43;44.08
10852;BME280;5479;52.046;6.314;2023-04-30T10:50:02;102249.69;;;21.07;44.79
10852;BME280;5479;52.046;6.314;2023-04-30T10:52:30;102234.00;;;21.12;46.23
10852;BME280;5479;52.046;6.314;2023-04-30T10:55:05;102242.94;;;22.09;43.62
10852;BME280;5479;52.046;6.314;2023-04-30T10:57:39;102242.25;;;22.58;42.41
10852;BME280;5479;52.046;6.314;2023-04-30T11:00:26;102240.91;;;22.22;42.06
10852;BME280;5479;52.046;6.314;2023-04-30T11:03:02;102247.00;;;21.18;43.67
10852;BME280;5479;52.046;6.314;2023-04-30T11:05:34;102232.97;;;21.89;42.67
10852;BME280;5479;52.046;6.314;2023-04-30T11:08:03;102226.88;;;22.08;41.75
10852;BME280;5479;52.046;6.314;2023-04-30T11:10:33;102218.63;;;22.51;41.48
10852;BME280;5479;52.046;6.314;2023-04-30T11:13:03;102221.34;;;22.30;41.89
10852;BME280;5479;52.046;6.314;2023-04-30T11:15:33;102214.59;;;21.40;43.29
10852;BME280;5479;52.046;6.314;2023-04-30T11:18:02;102212.72;;;21.09;45.05
10852;BME280;5479;52.046;6.314;2023-04-30T11:20:30;102211.44;;;21.35;44.61
10852;BME280;5479;52.046;6.314;2023-04-30T11:23:09;102206.34;;;21.10;44.82
10852;BME280;5479;52.046;6.314;2023-04-30T11:25:43;102205.59;;;20.53;46.85
10852;BME280;5479;52.046;6.314;2023-04-30T11:28:13;102203.88;;;20.52;46.73
10852;BME280;5479;52.046;6.314;2023-04-30T11:30:50;102199.91;;;20.22;47.32
10852;BME280;5479;52.046;6.314;2023-04-30T11:33:18;102201.94;;;20.54;46.11
10852;BME280;5479;52.046;6.314;2023-04-30T11:35:47;102200.94;;;19.50;47.36
10852;BME280;5479;52.046;6.314;2023-04-30T11:38:19;102198.16;;;19.15;49.47
10852;BME280;5479;52.046;6.314;2023-04-30T11:40:50;102195.50;;;19.03;50.16
10852;BME280;5479;52.046;6.314;2023-04-30T11:43:22;102189.50;;;19.36;49.07
10852;BME280;5479;52.046;6.314;2023-04-30T11:46:03;102189.75;;;18.96;50.58
10852;BME280;5479;52.046;6.314;2023-04-30T11:48:33;102183.00;;;18.78;51.02
10852;BME280;5479;52.046;6.314;2023-04-30T11:51:12;102184.41;;;18.71;51.64
10852;BME280;5479;52.046;6.314;2023-04-30T11:53:41;102177.78;;;19.00;53.16
10852;BME280;5479;52.046;6.314;2023-04-30T11:56:10;102173.25;;;19.13;51.21
10852;BME280;5479;52.046;6.314;2023-04-30T11:58:38;102173.66;;;18.84;51.91
10852;BME280;5479;52.046;6.314;2023-04-30T12:01:07;102170.53;;;18.90;51.17
10852;BME280;5479;52.046;6.314;2023-04-30T12:03:40;102174.16;;;19.01;51.02
10852;BME280;5479;52.046;6.314;2023-04-30T12:06:09;102170.69;;;19.12;50.44
10852;BME280;5479;52.046;6.314;2023-04-30T12:08:40;102163.59;;;18.62;54.06
10852;BME280;5479;52.046;6.314;2023-04-30T12:11:20;102163.56;;;18.87;51.93
10852;BME280;5479;52.046;6.314;2023-04-30T12:13:52;102157.00;;;18.91;51.92
10852;BME280;5479;52.046;6.314;2023-04-30T12:16:20;102157.63;;;18.95;53.65
10852;BME280;5479;52.046;6.314;2023-04-30T12:18:48;102151.88;;;18.88;54.22
10852;BME280;5479;52.046;6.314;2023-04-30T12:21:17;102156.31;;;19.00;53.15
10852;BME280;5479;52.046;6.314;2023-04-30T12:23:45;102146.31;;;19.39;51.30
10852;BME280;5479;52.046;6.314;2023-04-30T12:26:13;102146.97;;;19.29;52.03
10852;BME280;5479;52.046;6.314;2023-04-30T12:28:46;102158.41;;;19.20;50.73
10852;BME280;5479;52.046;6.314;2023-04-30T12:31:16;102156.63;;;18.72;52.50
10852;BME280;5479;52.046;6.314;2023-04-30T12:33:52;102151.34;;;18.71;51.55
10852;BME280;5479;52.046;6.314;2023-04-30T12:36:20;102150.81;;;19.14;50.20
10852;BME280;5479;52.046;6.314;2023-04-30T12:38:49;102152.41;;;19.17;51.25
10852;BME280;5479;52.046;6.314;2023-04-30T12:41:28;102141.72;;;19.04;52.15
10852;BME280;5479;52.046;6.314;2023-04-30T12:44:19;102144.72;;;19.00;50.17
10852;BME280;5479;52.046;6.314;2023-04-30T12:46:48;102133.84;;;18.65;52.26
10852;BME280;5479;52.046;6.314;2023-04-30T12:49:24;102131.94;;;18.67;52.82
10852;BME280;5479;52.046;6.314;2023-04-30T12:51:57;102133.16;;;18.87;52.29
10852;BME280;5479;52.046;6.314;2023-04-30T12:54:27;102132.75;;;19.16;51.49
10852;BME280;5479;52.046;6.314;2023-04-30T12:56:57;102132.81;;;19.04;50.09
10852;BME280;5479;52.046;6.314;2023-04-30T12:59:27;102139.22;;;18.78;51.61
10852;BME280;5479;52.046;6.314;2023-04-30T13:02:04;102131.72;;;18.45;51.58
10852;BME280;5479;52.046;6.314;2023-04-30T13:04:33;102134.94;;;18.25;51.97
10852;BME280;5479;52.046;6.314;2023-04-30T13:07:01;102123.78;;;18.43;54.17
10852;BME280;5479;52.046;6.314;2023-04-30T13:09:30;102119.97;;;18.47;52.25
10852;BME280;5479;52.046;6.314;2023-04-30T13:11:58;102117.47;;;18.32;51.68
10852;BME280;5479;52.046;6.314;2023-04-30T13:14:28;102112.31;;;18.41;53.66